Terminal Aerodrome Forecast
Issued by NWS

Current Version | Previous Version | Text Only | Print | Product List | Glossary Off
Versions: 1 2 3 4 5 6 7 8 9 10 11 12 13 14 15 16 17 18 19 20 21 22

000
FTUS41 KRLX 250500 RRA
TAFCKB
TAF
KCKB 250546Z 2506/2606 26007KT 6SM BR OVC008
     FM251100 00000KT P6SM OVC010
     FM251500 20007KT P6SM SCT015
     FM252300 00000KT 6SM -RA OVC045
     FM260100 00000KT 5SM -RA OVC040=

USA.gov is the U.S. government's official web portal to all federal, state and local government web resources and services.